Anderson, Ohio
Current Conditions -  °F | °C
As of 6:53 PM on Sunday 23 Nov 2014 (Local Time) from KLUK Reporting Station
Moderate Rain Moderate Rain  
Wind Chill: 56°   Ceiling: 2900
Heat Index: 56°   Visibility: 6mi
Dew Point: 54°   Wind: 14mph
Humidity: 93%   Direction: 140°SE
Pressure: 29.5"   Gusts: 24mph
Location:  39.0659°N, 84.278°W
Report Text: KLUK 232353Z 14012G21KT 6SM RA BR FEW014 BKN029 OVC044 13/12 A2950 RMK AO2 SLP989 P0011 60023 T01330122 10167 20128 56052
Loading
Personal Weather Stations






























Interactive Weather Map New forecast layout! Learn more

10-Day Weather Forecast

Advertisements
Track Severe Weather on mobile